SPMAL EPMO-EPLB
Flight info
| Callsign | SPMAL |
|---|---|
| Flight time | N/A |
| Altitude | 9000 |
| Route | DCT XIMBA DCT VENES |
| Aircraft | PA30/L-SABDGY/C |
Departure
| Time | N/A |
|---|---|
| Airport | Warsaw Modlin Airport (EPMO) |
Arrival
| Time | 2026-04-12 11:13 |
|---|---|
| Airport | Lublin Airport (EPLB) |
| Time | Latitude | Longitude | Altitude | Speed | Heading |
|---|---|---|---|---|---|
| 2026-04-12 10:20 | 52.15510 | 21.12344 | 9308 ft | 145 kts | 140° |
| 2026-04-12 10:21 | 52.14695 | 21.13333 | 9335 ft | 145 kts | 139° |
| 2026-04-12 10:21 | 52.13932 | 21.14418 | 9403 ft | 144 kts | 139° |
| 2026-04-12 10:21 | 52.13096 | 21.15232 | 9567 ft | 144 kts | 155° |
| 2026-04-12 10:21 | 52.12139 | 21.15861 | 9604 ft | 145 kts | 154° |
| 2026-04-12 10:22 | 52.11258 | 21.16439 | 9930 ft | 132 kts | 155° |
| 2026-04-12 10:22 | 52.10424 | 21.17095 | 10044 ft | 133 kts | 146° |
| 2026-04-12 10:22 | 52.09623 | 21.17974 | 9984 ft | 145 kts | 143° |
| 2026-04-12 10:22 | 52.08725 | 21.18831 | 9939 ft | 151 kts | 149° |
| 2026-04-12 10:23 | 52.07873 | 21.19672 | 10130 ft | 144 kts | 144° |
| 2026-04-12 10:23 | 52.07020 | 21.20593 | 10082 ft | 150 kts | 142° |
| 2026-04-12 10:23 | 52.06192 | 21.21589 | 10094 ft | 149 kts | 137° |
| 2026-04-12 10:23 | 52.05437 | 21.22734 | 10128 ft | 149 kts | 129° |
| 2026-04-12 10:24 | 52.04775 | 21.23998 | 10212 ft | 142 kts | 124° |
| 2026-04-12 10:24 | 52.04189 | 21.25284 | 10164 ft | 148 kts | 118° |
| 2026-04-12 10:24 | 52.03579 | 21.26631 | 10267 ft | 144 kts | 134° |
| 2026-04-12 10:24 | 52.02830 | 21.27765 | 10162 ft | 154 kts | 126° |
| 2026-04-12 10:25 | 52.02179 | 21.29192 | 10092 ft | 157 kts | 122° |
| 2026-04-12 10:25 | 52.01526 | 21.30515 | 10292 ft | 144 kts | 127° |
| 2026-04-12 10:25 | 52.00758 | 21.31643 | 10189 ft | 156 kts | 139° |
| 2026-04-12 10:25 | 51.99863 | 21.32620 | 10272 ft | 151 kts | 147° |
| 2026-04-12 10:26 | 51.98940 | 21.33418 | 10273 ft | 154 kts | 150° |
| 2026-04-12 10:26 | 51.97987 | 21.34240 | 10268 ft | 153 kts | 146° |
| 2026-04-12 10:26 | 51.97148 | 21.35254 | 10283 ft | 150 kts | 133° |
| 2026-04-12 10:26 | 51.96436 | 21.36515 | 10253 ft | 152 kts | 129° |
| 2026-04-12 10:27 | 51.95671 | 21.37684 | 10310 ft | 150 kts | 135° |
| 2026-04-12 10:27 | 51.94868 | 21.38785 | 10298 ft | 153 kts | 140° |
| 2026-04-12 10:27 | 51.93959 | 21.39695 | 10310 ft | 154 kts | 152° |
| 2026-04-12 10:27 | 51.92953 | 21.40299 | 10305 ft | 156 kts | 163° |
| 2026-04-12 10:28 | 51.91891 | 21.40649 | 10332 ft | 155 kts | 171° |
| 2026-04-12 10:28 | 51.90827 | 21.40932 | 10310 ft | 156 kts | 161° |
| 2026-04-12 10:28 | 51.89870 | 21.41750 | 10295 ft | 154 kts | 140° |
| 2026-04-12 10:28 | 51.89027 | 21.42780 | 10324 ft | 153 kts | 141° |
| 2026-04-12 10:29 | 51.88085 | 21.43687 | 10264 ft | 158 kts | 152° |
| 2026-04-12 10:29 | 51.87119 | 21.44413 | 10379 ft | 150 kts | 151° |
| 2026-04-12 10:29 | 51.86174 | 21.45222 | 10305 ft | 157 kts | 150° |
| 2026-04-12 10:29 | 51.85179 | 21.45908 | 10352 ft | 154 kts | 159° |
| 2026-04-12 10:30 | 51.84153 | 21.46412 | 10344 ft | 155 kts | 164° |
| 2026-04-12 10:30 | 51.83095 | 21.46812 | 10340 ft | 155 kts | 166° |
| 2026-04-12 10:30 | 51.82055 | 21.47262 | 10354 ft | 155 kts | 161° |
| 2026-04-12 10:30 | 51.81037 | 21.47839 | 10332 ft | 156 kts | 158° |
| 2026-04-12 10:31 | 51.80035 | 21.48485 | 10341 ft | 154 kts | 154° |
| 2026-04-12 10:31 | 51.79042 | 21.49165 | 10309 ft | 157 kts | 155° |
| 2026-04-12 10:31 | 51.78048 | 21.49868 | 10346 ft | 154 kts | 152° |
| 2026-04-12 10:31 | 51.77104 | 21.50662 | 10350 ft | 155 kts | 150° |
| 2026-04-12 10:32 | 51.76117 | 21.51407 | 10336 ft | 155 kts | 156° |
| 2026-04-12 10:32 | 51.75119 | 21.52043 | 10318 ft | 157 kts | 157° |
| 2026-04-12 10:32 | 51.74082 | 21.52653 | 10325 ft | 157 kts | 159° |
| 2026-04-12 10:32 | 51.73072 | 21.53274 | 10361 ft | 156 kts | 154° |
| 2026-04-12 10:33 | 51.72108 | 21.54086 | 10323 ft | 157 kts | 145° |
| 2026-04-12 10:33 | 51.71189 | 21.55024 | 10340 ft | 155 kts | 148° |
| 2026-04-12 10:33 | 51.70222 | 21.55804 | 10324 ft | 157 kts | 154° |
| 2026-04-12 10:33 | 51.69200 | 21.56452 | 10318 ft | 158 kts | 160° |
| 2026-04-12 10:34 | 51.68168 | 21.57006 | 10328 ft | 157 kts | 159° |
| 2026-04-12 10:34 | 51.67141 | 21.57616 | 10324 ft | 157 kts | 158° |
| 2026-04-12 10:34 | 51.66128 | 21.58238 | 10323 ft | 156 kts | 156° |
| 2026-04-12 10:34 | 51.65123 | 21.58933 | 10300 ft | 157 kts | 152° |
| 2026-04-12 10:35 | 51.64187 | 21.59818 | 10321 ft | 156 kts | 147° |
| 2026-04-12 10:35 | 51.63174 | 21.60488 | 10292 ft | 159 kts | 164° |
| 2026-04-12 10:35 | 51.62099 | 21.60738 | 10309 ft | 158 kts | 178° |
| 2026-04-12 10:35 | 51.61005 | 21.60829 | 10311 ft | 158 kts | 174° |
| 2026-04-12 10:36 | 51.59921 | 21.61128 | 10291 ft | 158 kts | 161° |
| 2026-04-12 10:36 | 51.58900 | 21.61777 | 10310 ft | 157 kts | 156° |
| 2026-04-12 10:36 | 51.57897 | 21.62452 | 10327 ft | 156 kts | 154° |
| 2026-04-12 10:36 | 51.56904 | 21.63188 | 10331 ft | 157 kts | 153° |
| 2026-04-12 10:37 | 51.55919 | 21.63931 | 10348 ft | 157 kts | 152° |
| 2026-04-12 10:37 | 51.54951 | 21.64734 | 10352 ft | 156 kts | 148° |
| 2026-04-12 10:37 | 51.53991 | 21.65575 | 10371 ft | 157 kts | 151° |
| 2026-04-12 10:37 | 51.53006 | 21.66327 | 10385 ft | 157 kts | 155° |
| 2026-04-12 10:38 | 51.51991 | 21.66998 | 10361 ft | 158 kts | 157° |
| 2026-04-12 10:38 | 51.50957 | 21.67618 | 10349 ft | 158 kts | 159° |
| 2026-04-12 10:38 | 51.49928 | 21.68221 | 10350 ft | 156 kts | 158° |
| 2026-04-12 10:38 | 51.48902 | 21.68838 | 10316 ft | 157 kts | 159° |
| 2026-04-12 10:39 | 51.47883 | 21.69432 | 10331 ft | 157 kts | 158° |
| 2026-04-12 10:39 | 51.46868 | 21.70061 | 10313 ft | 156 kts | 156° |
| 2026-04-12 10:39 | 51.45866 | 21.70730 | 10299 ft | 157 kts | 155° |
| 2026-04-12 10:39 | 51.44864 | 21.71410 | 10303 ft | 155 kts | 155° |
| 2026-04-12 10:40 | 51.43862 | 21.72091 | 10287 ft | 157 kts | 154° |
| 2026-04-12 10:40 | 51.42884 | 21.72843 | 10261 ft | 156 kts | 152° |
| 2026-04-12 10:40 | 51.41914 | 21.73633 | 10241 ft | 156 kts | 152° |
| 2026-04-12 10:40 | 51.40938 | 21.74369 | 10263 ft | 155 kts | 153° |
| 2026-04-12 10:41 | 51.39948 | 21.75075 | 10228 ft | 157 kts | 156° |
| 2026-04-12 10:41 | 51.38948 | 21.75736 | 10248 ft | 154 kts | 156° |
| 2026-04-12 10:41 | 51.37971 | 21.76444 | 10222 ft | 156 kts | 155° |
| 2026-04-12 10:41 | 51.36950 | 21.77059 | 10221 ft | 155 kts | 161° |
| 2026-04-12 10:42 | 51.35919 | 21.77553 | 10220 ft | 155 kts | 163° |
| 2026-04-12 10:42 | 51.34886 | 21.78060 | 10239 ft | 153 kts | 163° |
| 2026-04-12 10:42 | 51.33866 | 21.78496 | 10237 ft | 154 kts | 166° |
| 2026-04-12 10:42 | 51.32806 | 21.78860 | 10232 ft | 155 kts | 168° |
| 2026-04-12 10:43 | 51.30723 | 21.79668 | 10240 ft | 154 kts | 162° |
| 2026-04-12 10:43 | 51.29718 | 21.80230 | 10246 ft | 153 kts | 159° |
| 2026-04-12 10:43 | 51.28705 | 21.80794 | 10234 ft | 153 kts | 161° |
| 2026-04-12 10:44 | 51.27722 | 21.81335 | 10304 ft | 150 kts | 161° |
| 2026-04-12 10:44 | 51.26716 | 21.81814 | 10303 ft | 152 kts | 165° |
| 2026-04-12 10:44 | 51.25755 | 21.82457 | 10303 ft | 152 kts | 147° |
| 2026-04-12 10:44 | 51.24867 | 21.83359 | 10328 ft | 150 kts | 143° |
| 2026-04-12 10:45 | 51.23999 | 21.84268 | 10352 ft | 150 kts | 144° |
| 2026-04-12 10:45 | 51.23106 | 21.85152 | 10341 ft | 151 kts | 148° |
| 2026-04-12 10:45 | 51.22190 | 21.85957 | 10371 ft | 150 kts | 150° |
| 2026-04-12 10:45 | 51.21253 | 21.86721 | 10377 ft | 149 kts | 153° |
| 2026-04-12 10:46 | 51.20312 | 21.87412 | 10318 ft | 156 kts | 154° |
| 2026-04-12 10:46 | 51.19303 | 21.88119 | 10260 ft | 158 kts | 155° |
| 2026-04-12 10:46 | 51.18288 | 21.88779 | 10296 ft | 153 kts | 158° |
| 2026-04-12 10:46 | 51.17289 | 21.89393 | 10268 ft | 157 kts | 158° |
| 2026-04-12 10:47 | 51.16272 | 21.90008 | 10271 ft | 155 kts | 159° |
| 2026-04-12 10:47 | 51.15243 | 21.90528 | 10246 ft | 156 kts | 163° |
| 2026-04-12 10:47 | 51.14271 | 21.91233 | 10277 ft | 151 kts | 135° |
| 2026-04-12 10:47 | 51.13753 | 21.92670 | 10164 ft | 151 kts | 100° |
| 2026-04-12 10:48 | 51.13897 | 21.94155 | 10207 ft | 133 kts | 54° |
| 2026-04-12 10:48 | 51.14261 | 21.95477 | 10260 ft | 132 kts | 64° |
| 2026-04-12 10:48 | 51.14568 | 21.96880 | 10260 ft | 132 kts | 62° |
| 2026-04-12 10:48 | 51.14905 | 21.98236 | 10297 ft | 131 kts | 60° |
| 2026-04-12 10:49 | 51.15259 | 21.99592 | 10255 ft | 135 kts | 62° |
| 2026-04-12 10:49 | 51.15558 | 22.01000 | 10326 ft | 132 kts | 66° |
| 2026-04-12 10:49 | 51.15813 | 22.02400 | 10310 ft | 134 kts | 67° |
| 2026-04-12 10:49 | 51.16077 | 22.03823 | 10309 ft | 135 kts | 66° |
| 2026-04-12 10:50 | 51.16340 | 22.05252 | 10333 ft | 136 kts | 71° |
| 2026-04-12 10:50 | 51.16515 | 22.06755 | 10293 ft | 139 kts | 72° |
| 2026-04-12 10:50 | 51.16645 | 22.08284 | 10317 ft | 137 kts | 75° |
| 2026-04-12 10:50 | 51.16757 | 22.09797 | 10308 ft | 139 kts | 77° |
| 2026-04-12 10:51 | 51.16877 | 22.11324 | 10317 ft | 138 kts | 74° |
| 2026-04-12 10:51 | 51.17046 | 22.12813 | 10329 ft | 137 kts | 72° |
| 2026-04-12 10:51 | 51.17348 | 22.14238 | 10276 ft | 137 kts | 62° |
| 2026-04-12 10:51 | 51.17646 | 22.15655 | 10335 ft | 134 kts | 67° |
| 2026-04-12 10:52 | 51.17820 | 22.17148 | 10293 ft | 138 kts | 75° |
| 2026-04-12 10:52 | 51.17948 | 22.18646 | 10178 ft | 137 kts | 74° |
| 2026-04-12 10:52 | 51.18121 | 22.20152 | 10025 ft | 137 kts | 71° |
| 2026-04-12 10:52 | 51.18303 | 22.21629 | 9924 ft | 136 kts | 73° |
| 2026-04-12 10:53 | 51.18444 | 22.23132 | 9763 ft | 138 kts | 76° |
| 2026-04-12 10:53 | 51.18572 | 22.24638 | 9643 ft | 136 kts | 74° |
| 2026-04-12 10:53 | 51.18791 | 22.26097 | 9505 ft | 135 kts | 68° |
| 2026-04-12 10:53 | 51.19068 | 22.27513 | 9382 ft | 133 kts | 65° |
| 2026-04-12 10:54 | 51.19370 | 22.28923 | 9305 ft | 134 kts | 65° |
| 2026-04-12 10:54 | 51.19692 | 22.30323 | 9256 ft | 134 kts | 62° |
| 2026-04-12 10:54 | 51.19989 | 22.31712 | 9280 ft | 133 kts | 70° |
| 2026-04-12 10:54 | 51.20203 | 22.33166 | 9249 ft | 135 kts | 70° |
| 2026-04-12 10:55 | 51.20415 | 22.34606 | 9203 ft | 132 kts | 71° |
| 2026-04-12 10:55 | 51.20604 | 22.36074 | 8993 ft | 137 kts | 72° |
| 2026-04-12 10:55 | 51.20812 | 22.37513 | 8913 ft | 133 kts | 70° |
| 2026-04-12 10:55 | 51.21005 | 22.38969 | 8723 ft | 139 kts | 80° |
| 2026-04-12 10:56 | 51.21052 | 22.40525 | 8618 ft | 136 kts | 82° |
| 2026-04-12 10:56 | 51.21065 | 22.42008 | 8494 ft | 137 kts | 86° |
| 2026-04-12 10:56 | 51.20983 | 22.43539 | 8388 ft | 138 kts | 93° |
| 2026-04-12 10:56 | 51.20825 | 22.45032 | 8258 ft | 137 kts | 96° |
| 2026-04-12 10:57 | 51.20625 | 22.46562 | 8011 ft | 142 kts | 97° |
| 2026-04-12 10:57 | 51.20445 | 22.48072 | 7908 ft | 137 kts | 95° |
| 2026-04-12 10:57 | 51.20293 | 22.49571 | 7689 ft | 137 kts | 84° |
| 2026-04-12 10:57 | 51.20587 | 22.51003 | 7437 ft | 133 kts | 55° |
| 2026-04-12 10:58 | 51.21049 | 22.52262 | 7254 ft | 132 kts | 56° |
| 2026-04-12 10:58 | 51.21470 | 22.53512 | 7118 ft | 126 kts | 56° |
| 2026-04-12 10:58 | 51.21882 | 22.54786 | 6818 ft | 132 kts | 57° |
| 2026-04-12 10:58 | 51.22267 | 22.56093 | 6660 ft | 129 kts | 66° |
| 2026-04-12 10:59 | 51.22492 | 22.57503 | 6419 ft | 132 kts | 72° |
| 2026-04-12 10:59 | 51.22697 | 22.58923 | 6213 ft | 130 kts | 70° |
| 2026-04-12 10:59 | 51.22928 | 22.60320 | 5976 ft | 130 kts | 69° |
| 2026-04-12 10:59 | 51.23175 | 22.61695 | 5789 ft | 128 kts | 68° |
| 2026-04-12 11:00 | 51.23451 | 22.63045 | 5577 ft | 128 kts | 65° |
| 2026-04-12 11:00 | 51.23760 | 22.64364 | 5388 ft | 126 kts | 63° |
| 2026-04-12 11:00 | 51.24098 | 22.65652 | 5191 ft | 125 kts | 59° |
| 2026-04-12 11:00 | 51.24544 | 22.66823 | 4985 ft | 124 kts | 51° |
| 2026-04-12 11:01 | 51.25005 | 22.67965 | 4808 ft | 122 kts | 52° |
| 2026-04-12 11:01 | 51.25431 | 22.69134 | 4605 ft | 121 kts | 54° |
| 2026-04-12 11:01 | 51.25867 | 22.70291 | 4407 ft | 122 kts | 51° |
| 2026-04-12 11:01 | 51.26371 | 22.71364 | 4326 ft | 118 kts | 46° |
| 2026-04-12 11:02 | 51.26881 | 22.72390 | 4125 ft | 120 kts | 45° |
| 2026-04-12 11:02 | 51.27411 | 22.73411 | 3977 ft | 118 kts | 45° |
| 2026-04-12 11:02 | 51.27900 | 22.74479 | 3854 ft | 120 kts | 49° |
| 2026-04-12 11:02 | 51.28360 | 22.75558 | 3759 ft | 118 kts | 51° |
| 2026-04-12 11:03 | 51.28800 | 22.76678 | 3611 ft | 120 kts | 52° |
| 2026-04-12 11:03 | 51.29271 | 22.77780 | 3492 ft | 119 kts | 50° |
| 2026-04-12 11:03 | 51.29793 | 22.78774 | 3381 ft | 115 kts | 31° |
| 2026-04-12 11:03 | 51.30451 | 22.79524 | 3306 ft | 120 kts | 43° |
| 2026-04-12 11:04 | 51.30884 | 22.80642 | 3432 ft | 119 kts | 59° |
| 2026-04-12 11:04 | 51.31158 | 22.81986 | 3411 ft | 131 kts | 76° |
| 2026-04-12 11:04 | 51.31158 | 22.83470 | 3460 ft | 133 kts | 91° |
| 2026-04-12 11:04 | 51.31094 | 22.84487 | 3319 ft | 144 kts | 93° |
| 2026-04-12 11:05 | 51.30936 | 22.86078 | 3341 ft | 142 kts | 85° |
| 2026-04-12 11:05 | 51.31373 | 22.87413 | 3217 ft | 137 kts | 39° |
| 2026-04-12 11:05 | 51.32039 | 22.88408 | 3332 ft | 130 kts | 40° |
| 2026-04-12 11:05 | 51.32700 | 22.89416 | 3335 ft | 136 kts | 42° |
| 2026-04-12 11:06 | 51.33371 | 22.90459 | 3357 ft | 134 kts | 44° |
| 2026-04-12 11:06 | 51.33747 | 22.91826 | 3340 ft | 141 kts | 82° |
| 2026-04-12 11:06 | 51.33470 | 22.93308 | 3338 ft | 146 kts | 129° |
| 2026-04-12 11:06 | 51.32544 | 22.94101 | 3109 ft | 157 kts | 160° |
| 2026-04-12 11:07 | 51.31548 | 22.94706 | 3052 ft | 154 kts | 159° |
| 2026-04-12 11:07 | 51.30542 | 22.95312 | 2949 ft | 147 kts | 158° |
| 2026-04-12 11:07 | 51.29568 | 22.95830 | 2725 ft | 152 kts | 163° |
| 2026-04-12 11:07 | 51.28585 | 22.96112 | 2758 ft | 144 kts | 185° |
| 2026-04-12 11:08 | 51.27640 | 22.95719 | 2786 ft | 139 kts | 207° |
| 2026-04-12 11:08 | 51.26915 | 22.94857 | 2852 ft | 120 kts | 244° |
| 2026-04-12 11:08 | 51.26765 | 22.93645 | 2756 ft | 109 kts | 275° |
| 2026-04-12 11:08 | 51.26759 | 22.92446 | 2595 ft | 106 kts | 277° |
| 2026-04-12 11:09 | 51.26782 | 22.91281 | 2518 ft | 104 kts | 270° |
| 2026-04-12 11:09 | 51.26467 | 22.90147 | 2332 ft | 115 kts | 250° |
| 2026-04-12 11:09 | 51.26185 | 22.88997 | 2286 ft | 109 kts | 263° |
| 2026-04-12 11:09 | 51.26090 | 22.87810 | 2261 ft | 105 kts | 268° |
| 2026-04-12 11:10 | 51.26028 | 22.86688 | 2255 ft | 99 kts | 267° |
| 2026-04-12 11:10 | 51.25937 | 22.85617 | 2223 ft | 93 kts | 268° |
| 2026-04-12 11:10 | 51.25795 | 22.84600 | 2263 ft | 100 kts | 255° |
| 2026-04-12 11:10 | 51.25574 | 22.83548 | 2310 ft | 97 kts | 267° |
| 2026-04-12 11:11 | 51.25460 | 22.82484 | 2211 ft | 99 kts | 262° |
| 2026-04-12 11:11 | 51.25308 | 22.81413 | 2047 ft | 99 kts | 265° |
| 2026-04-12 11:11 | 51.25089 | 22.80373 | 1929 ft | 100 kts | 255° |
| 2026-04-12 11:11 | 51.24946 | 22.79319 | 1706 ft | 96 kts | 277° |
| 2026-04-12 11:12 | 51.24921 | 22.78221 | 1493 ft | 101 kts | 270° |
| 2026-04-12 11:12 | 51.24820 | 22.77103 | 1244 ft | 101 kts | 261° |
| 2026-04-12 11:12 | 51.24686 | 22.76036 | 1040 ft | 96 kts | 259° |
| 2026-04-12 11:12 | 51.24547 | 22.75024 | 899 ft | 91 kts | 258° |
| 2026-04-12 11:13 | 51.24403 | 22.74041 | 752 ft | 91 kts | 257° |
| 2026-04-12 11:13 | 51.24267 | 22.73070 | 641 ft | 88 kts | 257° |
| 2026-04-12 11:13 | 51.24158 | 22.72305 | 630 ft | 55 kts | 252° |
| 2026-04-12 11:13 | 51.24114 | 22.72007 | 630 ft | 0 kts | 257° |
| 2026-04-12 11:14 | 51.24113 | 22.71998 | 634 ft | 7 kts | 257° |
| 2026-04-12 11:14 | 51.24091 | 22.71850 | 629 ft | 20 kts | 256° |
| 2026-04-12 11:14 | 51.24056 | 22.71602 | 634 ft | 23 kts | 257° |
| 2026-04-12 11:14 | 51.24006 | 22.71382 | 632 ft | 20 kts | 205° |
| 2026-04-12 11:15 | 51.23891 | 22.71402 | 632 ft | 0 kts | 168° |
| 2026-04-12 11:15 | 51.23888 | 22.71404 | 632 ft | 4 kts | 168° |
| 2026-04-12 11:15 | 51.23822 | 22.71428 | 632 ft | 11 kts | 167° |
| 2026-04-12 11:15 | 51.23827 | 22.71506 | 632 ft | 11 kts | 76° |
| 2026-04-12 11:16 | 51.23833 | 22.71552 | 632 ft | 1 kts | 76° |
| 2026-04-12 11:16 | 51.23834 | 22.71557 | 632 ft | 0 kts | 75° |